sensor_id;sensor_type;location;lat;lon;timestamp;pressure;altitude;pressure_sealevel;temperature;humidity
72925;BME280;61070;50.794;7.054;2023-03-13T00:01:24;99832.69;;;10.33;88.04
72925;BME280;61070;50.794;7.054;2023-03-13T00:03:50;99834.25;;;10.40;87.29
72925;BME280;61070;50.794;7.054;2023-03-13T00:06:16;99833.13;;;10.50;87.21
72925;BME280;61070;50.794;7.054;2023-03-13T00:08:42;99816.59;;;10.42;87.07
72925;BME280;61070;50.794;7.054;2023-03-13T00:11:10;99807.78;;;10.40;87.40
72925;BME280;61070;50.794;7.054;2023-03-13T00:13:36;99807.13;;;10.32;88.06
72925;BME280;61070;50.794;7.054;2023-03-13T00:16:05;99804.31;;;10.38;87.90
72925;BME280;61070;50.794;7.054;2023-03-13T00:18:30;99816.72;;;10.36;87.92
72925;BME280;61070;50.794;7.054;2023-03-13T00:21:23;99800.28;;;10.23;88.34
72925;BME280;61070;50.794;7.054;2023-03-13T00:23:49;99790.63;;;10.19;88.95
72925;BME280;61070;50.794;7.054;2023-03-13T00:26:16;99788.72;;;10.27;88.96
72925;BME280;61070;50.794;7.054;2023-03-13T00:28:42;99772.03;;;10.24;88.65
72925;BME280;61070;50.794;7.054;2023-03-13T00:31:17;99769.22;;;10.31;88.24
72925;BME280;61070;50.794;7.054;2023-03-13T00:33:44;99767.66;;;10.23;88.74
72925;BME280;61070;50.794;7.054;2023-03-13T00:36:15;99752.69;;;10.20;89.02
72925;BME280;61070;50.794;7.054;2023-03-13T00:38:42;99742.31;;;10.46;87.80
72925;BME280;61070;50.794;7.054;2023-03-13T00:41:10;99736.63;;;10.28;88.95
72925;BME280;61070;50.794;7.054;2023-03-13T00:43:40;99730.44;;;10.29;89.24
72925;BME280;61070;50.794;7.054;2023-03-13T00:46:06;99731.38;;;10.26;90.51
72925;BME280;61070;50.794;7.054;2023-03-13T00:48:32;99731.53;;;10.22;92.91
72925;BME280;61070;50.794;7.054;2023-03-13T00:50:58;99713.19;;;10.12;94.89
72925;BME280;61070;50.794;7.054;2023-03-13T00:53:23;99714.38;;;10.01;96.30
72925;BME280;61070;50.794;7.054;2023-03-13T00:58:22;99702.94;;;10.00;97.88
72925;BME280;61070;50.794;7.054;2023-03-13T01:00:47;99697.59;;;10.02;98.66
72925;BME280;61070;50.794;7.054;2023-03-13T01:03:13;99697.41;;;10.09;98.16
72925;BME280;61070;50.794;7.054;2023-03-13T01:05:38;99679.78;;;10.08;98.96
72925;BME280;61070;50.794;7.054;2023-03-13T01:08:04;99683.38;;;10.06;98.48
72925;BME280;61070;50.794;7.054;2023-03-13T01:10:29;99683.59;;;9.98;99.37
72925;BME280;61070;50.794;7.054;2023-03-13T01:12:54;99680.06;;;9.98;99.62
72925;BME280;61070;50.794;7.054;2023-03-13T01:15:19;99681.69;;;10.03;99.10
72925;BME280;61070;50.794;7.054;2023-03-13T01:17:45;99669.28;;;10.05;100.00
72925;BME280;61070;50.794;7.054;2023-03-13T01:20:11;99666.75;;;10.01;100.00
72925;BME280;61070;50.794;7.054;2023-03-13T01:22:36;99671.81;;;10.10;99.57
72925;BME280;61070;50.794;7.054;2023-03-13T01:25:02;99671.78;;;10.11;99.25
72925;BME280;61070;50.794;7.054;2023-03-13T01:27:28;99668.53;;;10.00;100.00
72925;BME280;61070;50.794;7.054;2023-03-13T01:29:53;99657.63;;;10.12;99.78
72925;BME280;61070;50.794;7.054;2023-03-13T01:32:18;99653.28;;;10.10;99.98
72925;BME280;61070;50.794;7.054;2023-03-13T01:34:44;99659.41;;;10.12;99.17
72925;BME280;61070;50.794;7.054;2023-03-13T01:37:09;99659.06;;;10.26;98.47
72925;BME280;61070;50.794;7.054;2023-03-13T01:39:34;99654.44;;;10.34;98.09
72925;BME280;61070;50.794;7.054;2023-03-13T01:42:02;99647.16;;;10.40;97.96
72925;BME280;61070;50.794;7.054;2023-03-13T01:44:27;99643.53;;;10.44;97.42
72925;BME280;61070;50.794;7.054;2023-03-13T01:46:53;99634.59;;;10.48;97.07
72925;BME280;61070;50.794;7.054;2023-03-13T01:49:28;99615.09;;;10.51;96.89
72925;BME280;61070;50.794;7.054;2023-03-13T01:51:59;99622.88;;;10.57;96.60
72925;BME280;61070;50.794;7.054;2023-03-13T01:54:46;99621.31;;;10.50;96.88
72925;BME280;61070;50.794;7.054;2023-03-13T01:57:28;99616.25;;;10.41;97.58
72925;BME280;61070;50.794;7.054;2023-03-13T02:00:05;99604.03;;;10.37;97.89
72925;BME280;61070;50.794;7.054;2023-03-13T02:02:33;99608.88;;;10.52;96.84
72925;BME280;61070;50.794;7.054;2023-03-13T02:05:00;99594.56;;;10.59;96.86
72925;BME280;61070;50.794;7.054;2023-03-13T02:07:31;99589.44;;;10.53;96.83
72925;BME280;61070;50.794;7.054;2023-03-13T02:09:59;99585.59;;;10.63;96.37
72925;BME280;61070;50.794;7.054;2023-03-13T02:12:34;99580.66;;;10.51;97.44
72925;BME280;61070;50.794;7.054;2023-03-13T02:15:04;99569.53;;;10.69;96.58
72925;BME280;61070;50.794;7.054;2023-03-13T02:17:29;99553.81;;;10.63;96.69
72925;BME280;61070;50.794;7.054;2023-03-13T02:19:57;99556.78;;;10.54;97.38
72925;BME280;61070;50.794;7.054;2023-03-13T02:27:33;99538.25;;;10.54;98.00
72925;BME280;61070;50.794;7.054;2023-03-13T02:29:58;99546.41;;;10.46;98.77
72925;BME280;61070;50.794;7.054;2023-03-13T02:32:25;99542.84;;;10.47;99.54
72925;BME280;61070;50.794;7.054;2023-03-13T02:34:53;99533.16;;;10.46;100.00
72925;BME280;61070;50.794;7.054;2023-03-13T02:37:20;99524.94;;;10.56;100.00
72925;BME280;61070;50.794;7.054;2023-03-13T02:39:49;99518.09;;;10.48;100.00
72925;BME280;61070;50.794;7.054;2023-03-13T02:42:18;99510.19;;;10.47;100.00
72925;BME280;61070;50.794;7.054;2023-03-13T02:44:45;99506.31;;;10.59;100.00
72925;BME280;61070;50.794;7.054;2023-03-13T02:47:11;99508.84;;;10.62;100.00
72925;BME280;61070;50.794;7.054;2023-03-13T02:49:37;99503.13;;;10.47;100.00
72925;BME280;61070;50.794;7.054;2023-03-13T02:52:15;99491.63;;;10.48;100.00
72925;BME280;61070;50.794;7.054;2023-03-13T02:54:43;99485.66;;;10.42;100.00
72925;BME280;61070;50.794;7.054;2023-03-13T02:57:10;99495.50;;;10.37;100.00
72925;BME280;61070;50.794;7.054;2023-03-13T02:59:35;99489.41;;;10.35;100.00
72925;BME280;61070;50.794;7.054;2023-03-13T03:02:02;99487.06;;;10.24;100.00
72925;BME280;61070;50.794;7.054;2023-03-13T03:04:29;99493.28;;;10.23;100.00
72925;BME280;61070;50.794;7.054;2023-03-13T03:06:54;99492.31;;;10.26;100.00
72925;BME280;61070;50.794;7.054;2023-03-13T03:09:20;99501.28;;;10.20;100.00
72925;BME280;61070;50.794;7.054;2023-03-13T03:11:46;99487.84;;;10.28;100.00
72925;BME280;61070;50.794;7.054;2023-03-13T03:14:12;99479.72;;;10.34;100.00
72925;BME280;61070;50.794;7.054;2023-03-13T03:16:38;99473.91;;;10.21;100.00
72925;BME280;61070;50.794;7.054;2023-03-13T03:19:04;99464.31;;;10.17;100.00
72925;BME280;61070;50.794;7.054;2023-03-13T03:21:31;99464.75;;;10.33;100.00
72925;BME280;61070;50.794;7.054;2023-03-13T03:23:56;99465.75;;;10.29;100.00
72925;BME280;61070;50.794;7.054;2023-03-13T03:26:21;99463.91;;;10.32;100.00
72925;BME280;61070;50.794;7.054;2023-03-13T03:28:46;99444.44;;;10.33;100.00
72925;BME280;61070;50.794;7.054;2023-03-13T03:31:14;99439.75;;;10.43;100.00
72925;BME280;61070;50.794;7.054;2023-03-13T03:33:40;99455.13;;;10.58;100.00
72925;BME280;61070;50.794;7.054;2023-03-13T03:36:08;99467.84;;;10.47;100.00
72925;BME280;61070;50.794;7.054;2023-03-13T03:38:35;99465.09;;;10.50;100.00
72925;BME280;61070;50.794;7.054;2023-03-13T03:41:00;99476.88;;;10.40;100.00
72925;BME280;61070;50.794;7.054;2023-03-13T03:43:26;99469.69;;;10.45;100.00
72925;BME280;61070;50.794;7.054;2023-03-13T03:45:51;99469.78;;;10.40;100.00
72925;BME280;61070;50.794;7.054;2023-03-13T03:48:17;99472.59;;;10.36;100.00
72925;BME280;61070;50.794;7.054;2023-03-13T03:50:42;99475.19;;;10.37;100.00
72925;BME280;61070;50.794;7.054;2023-03-13T03:53:08;99469.09;;;10.35;100.00
72925;BME280;61070;50.794;7.054;2023-03-13T03:55:33;99464.47;;;10.42;100.00
72925;BME280;61070;50.794;7.054;2023-03-13T03:57:59;99455.81;;;10.37;100.00
72925;BME280;61070;50.794;7.054;2023-03-13T04:00:24;99457.81;;;10.57;100.00
72925;BME280;61070;50.794;7.054;2023-03-13T04:02:49;99443.44;;;10.64;100.00
72925;BME280;61070;50.794;7.054;2023-03-13T04:05:15;99451.44;;;10.62;100.00
72925;BME280;61070;50.794;7.054;2023-03-13T04:07:40;99451.31;;;10.67;100.00
72925;BME280;61070;50.794;7.054;2023-03-13T04:10:06;99432.97;;;10.61;100.00
72925;BME280;61070;50.794;7.054;2023-03-13T04:12:31;99421.63;;;10.57;100.00
72925;BME280;61070;50.794;7.054;2023-03-13T04:14:56;99418.75;;;10.63;100.00
72925;BME280;61070;50.794;7.054;2023-03-13T04:17:22;99418.75;;;10.63;100.00
72925;BME280;61070;50.794;7.054;2023-03-13T04:19:47;99417.84;;;10.64;100.00
72925;BME280;61070;50.794;7.054;2023-03-13T04:22:12;99424.16;;;10.60;100.00
72925;BME280;61070;50.794;7.054;2023-03-13T04:24:38;99411.94;;;10.56;100.00
72925;BME280;61070;50.794;7.054;2023-03-13T04:27:03;99414.72;;;10.52;100.00
72925;BME280;61070;50.794;7.054;2023-03-13T04:29:31;99419.97;;;10.53;100.00
72925;BME280;61070;50.794;7.054;2023-03-13T04:31:56;99406.38;;;10.64;100.00
72925;BME280;61070;50.794;7.054;2023-03-13T04:34:21;99405.44;;;10.66;100.00
72925;BME280;61070;50.794;7.054;2023-03-13T04:36:47;99395.16;;;10.57;100.00
72925;BME280;61070;50.794;7.054;2023-03-13T04:39:12;99391.22;;;10.69;100.00
72925;BME280;61070;50.794;7.054;2023-03-13T04:41:37;99394.78;;;10.68;100.00
72925;BME280;61070;50.794;7.054;2023-03-13T04:44:03;99389.53;;;10.66;100.00
72925;BME280;61070;50.794;7.054;2023-03-13T04:46:28;99397.75;;;10.59;100.00
72925;BME280;61070;50.794;7.054;2023-03-13T04:48:53;99411.44;;;10.71;100.00
72925;BME280;61070;50.794;7.054;2023-03-13T04:51:18;99405.16;;;11.00;100.00
72925;BME280;61070;50.794;7.054;2023-03-13T04:53:44;99395.69;;;10.93;100.00
72925;BME280;61070;50.794;7.054;2023-03-13T04:56:11;99391.00;;;11.01;100.00
72925;BME280;61070;50.794;7.054;2023-03-13T04:58:41;99392.50;;;11.33;100.00
72925;BME280;61070;50.794;7.054;2023-03-13T05:01:06;99385.91;;;11.44;100.00
72925;BME280;61070;50.794;7.054;2023-03-13T05:03:32;99383.84;;;11.28;100.00
72925;BME280;61070;50.794;7.054;2023-03-13T05:05:57;99374.91;;;11.31;100.00
72925;BME280;61070;50.794;7.054;2023-03-13T05:08:22;99368.25;;;11.44;100.00
72925;BME280;61070;50.794;7.054;2023-03-13T05:10:47;99361.25;;;11.42;100.00
72925;BME280;61070;50.794;7.054;2023-03-13T05:13:13;99365.41;;;11.49;100.00
72925;BME280;61070;50.794;7.054;2023-03-13T05:15:38;99364.22;;;11.32;100.00
72925;BME280;61070;50.794;7.054;2023-03-13T05:18:03;99363.09;;;11.40;100.00
72925;BME280;61070;50.794;7.054;2023-03-13T05:20:29;99363.19;;;11.85;100.00
72925;BME280;61070;50.794;7.054;2023-03-13T05:22:54;99359.19;;;11.73;100.00
72925;BME280;61070;50.794;7.054;2023-03-13T05:25:19;99369.22;;;11.88;100.00
72925;BME280;61070;50.794;7.054;2023-03-13T05:27:45;99365.28;;;11.99;100.00
72925;BME280;61070;50.794;7.054;2023-03-13T05:30:10;99364.69;;;11.92;100.00
72925;BME280;61070;50.794;7.054;2023-03-13T05:32:36;99360.00;;;11.99;100.00
72925;BME280;61070;50.794;7.054;2023-03-13T05:35:01;99343.97;;;12.02;100.00
72925;BME280;61070;50.794;7.054;2023-03-13T05:37:26;99351.88;;;12.03;100.00
72925;BME280;61070;50.794;7.054;2023-03-13T05:39:52;99344.00;;;12.00;100.00
72925;BME280;61070;50.794;7.054;2023-03-13T05:42:17;99341.59;;;11.94;100.00
72925;BME280;61070;50.794;7.054;2023-03-13T05:44:42;99348.41;;;12.01;100.00
72925;BME280;61070;50.794;7.054;2023-03-13T05:47:07;99346.38;;;12.08;100.00
72925;BME280;61070;50.794;7.054;2023-03-13T05:49:33;99344.69;;;12.05;100.00
72925;BME280;61070;50.794;7.054;2023-03-13T05:51:59;99345.88;;;12.20;100.00
72925;BME280;61070;50.794;7.054;2023-03-13T05:54:24;99335.94;;;12.03;100.00
72925;BME280;61070;50.794;7.054;2023-03-13T05:56:49;99340.91;;;12.11;100.00
72925;BME280;61070;50.794;7.054;2023-03-13T05:59:16;99335.00;;;12.26;100.00
72925;BME280;61070;50.794;7.054;2023-03-13T06:01:41;99342.63;;;12.13;100.00
72925;BME280;61070;50.794;7.054;2023-03-13T06:04:06;99339.41;;;12.27;100.00
72925;BME280;61070;50.794;7.054;2023-03-13T06:06:32;99336.19;;;12.19;100.00
72925;BME280;61070;50.794;7.054;2023-03-13T06:08:57;99333.22;;;12.27;100.00
72925;BME280;61070;50.794;7.054;2023-03-13T06:11:22;99345.69;;;12.46;100.00
72925;BME280;61070;50.794;7.054;2023-03-13T06:13:50;99343.91;;;12.25;100.00
72925;BME280;61070;50.794;7.054;2023-03-13T06:16:15;99340.53;;;12.42;100.00
72925;BME280;61070;50.794;7.054;2023-03-13T06:18:40;99310.47;;;12.41;100.00
72925;BME280;61070;50.794;7.054;2023-03-13T06:21:06;99317.38;;;12.45;100.00
72925;BME280;61070;50.794;7.054;2023-03-13T06:23:31;99307.75;;;12.43;100.00
72925;BME280;61070;50.794;7.054;2023-03-13T06:25:59;99304.44;;;12.38;100.00
72925;BME280;61070;50.794;7.054;2023-03-13T06:28:24;99317.78;;;12.57;100.00
72925;BME280;61070;50.794;7.054;2023-03-13T06:30:50;99343.34;;;12.81;99.85
72925;BME280;61070;50.794;7.054;2023-03-13T06:33:16;99363.38;;;12.88;99.72
72925;BME280;61070;50.794;7.054;2023-03-13T06:35:42;99361.38;;;12.73;100.00
72925;BME280;61070;50.794;7.054;2023-03-13T06:38:08;99353.81;;;12.84;99.67
72925;BME280;61070;50.794;7.054;2023-03-13T06:40:33;99356.88;;;12.95;99.18
72925;BME280;61070;50.794;7.054;2023-03-13T06:42:58;99362.84;;;13.00;98.55
72925;BME280;61070;50.794;7.054;2023-03-13T06:45:24;99364.72;;;12.98;98.96
72925;BME280;61070;50.794;7.054;2023-03-13T06:47:49;99373.31;;;13.05;98.23
72925;BME280;61070;50.794;7.054;2023-03-13T06:50:16;99379.88;;;12.96;98.81
72925;BME280;61070;50.794;7.054;2023-03-13T06:52:41;99374.09;;;13.07;97.73
72925;BME280;61070;50.794;7.054;2023-03-13T06:55:07;99381.50;;;13.21;97.12
72925;BME280;61070;50.794;7.054;2023-03-13T06:57:33;99378.16;;;13.16;97.98
72925;BME280;61070;50.794;7.054;2023-03-13T06:59:58;99393.19;;;13.17;96.94
72925;BME280;61070;50.794;7.054;2023-03-13T07:02:23;99383.09;;;13.25;96.46
72925;BME280;61070;50.794;7.054;2023-03-13T07:04:49;99386.56;;;13.27;96.69
72925;BME280;61070;50.794;7.054;2023-03-13T07:07:14;99378.09;;;13.17;96.98
72925;BME280;61070;50.794;7.054;2023-03-13T07:09:39;99378.41;;;13.09;97.44
72925;BME280;61070;50.794;7.054;2023-03-13T07:12:05;99383.84;;;13.28;96.14
72925;BME280;61070;50.794;7.054;2023-03-13T07:14:30;99389.28;;;13.25;95.91
72925;BME280;61070;50.794;7.054;2023-03-13T07:16:57;99390.81;;;13.31;95.21
72925;BME280;61070;50.794;7.054;2023-03-13T07:19:23;99390.16;;;13.26;95.46
72925;BME280;61070;50.794;7.054;2023-03-13T07:21:48;99384.16;;;13.21;95.29
72925;BME280;61070;50.794;7.054;2023-03-13T07:24:14;99390.47;;;13.38;93.56
72925;BME280;61070;50.794;7.054;2023-03-13T07:26:39;99377.94;;;13.61;90.87
72925;BME280;61070;50.794;7.054;2023-03-13T07:29:04;99385.53;;;13.68;89.98
72925;BME280;61070;50.794;7.054;2023-03-13T07:31:30;99392.41;;;13.74;89.47
72925;BME280;61070;50.794;7.054;2023-03-13T07:33:58;99383.72;;;13.71;89.61
72925;BME280;61070;50.794;7.054;2023-03-13T07:36:24;99386.63;;;13.64;89.29
72925;BME280;61070;50.794;7.054;2023-03-13T07:38:50;99388.28;;;13.67;88.80
72925;BME280;61070;50.794;7.054;2023-03-13T07:41:16;99388.13;;;13.70;88.46
72925;BME280;61070;50.794;7.054;2023-03-13T07:43:41;99386.84;;;13.79;87.73
72925;BME280;61070;50.794;7.054;2023-03-13T07:46:13;99376.56;;;13.90;87.09
72925;BME280;61070;50.794;7.054;2023-03-13T07:48:40;99374.13;;;13.85;87.07
72925;BME280;61070;50.794;7.054;2023-03-13T07:51:10;99364.00;;;13.93;86.91
72925;BME280;61070;50.794;7.054;2023-03-13T07:53:36;99343.25;;;14.00;86.10
72925;BME280;61070;50.794;7.054;2023-03-13T07:56:03;99334.13;;;14.06;86.54
72925;BME280;61070;50.794;7.054;2023-03-13T07:58:31;99342.63;;;13.95;87.02
72925;BME280;61070;50.794;7.054;2023-03-13T08:00:57;99337.66;;;14.06;85.74
72925;BME280;61070;50.794;7.054;2023-03-13T08:03:23;99338.16;;;13.95;86.47
72925;BME280;61070;50.794;7.054;2023-03-13T08:05:59;99338.78;;;14.01;85.89
72925;BME280;61070;50.794;7.054;2023-03-13T08:08:25;99335.97;;;14.04;85.43
72925;BME280;61070;50.794;7.054;2023-03-13T08:10:50;99341.59;;;14.16;84.15
72925;BME280;61070;50.794;7.054;2023-03-13T08:13:16;99331.22;;;14.10;84.12
72925;BME280;61070;50.794;7.054;2023-03-13T08:15:41;99342.66;;;14.12;83.51
72925;BME280;61070;50.794;7.054;2023-03-13T08:18:06;99324.75;;;14.16;82.89
72925;BME280;61070;50.794;7.054;2023-03-13T08:20:31;99330.66;;;14.04;83.86
72925;BME280;61070;50.794;7.054;2023-03-13T08:22:57;99330.97;;;13.97;84.20
72925;BME280;61070;50.794;7.054;2023-03-13T08:25:22;99328.34;;;14.15;82.91
72925;BME280;61070;50.794;7.054;2023-03-13T08:27:47;99332.00;;;14.12;82.42
72925;BME280;61070;50.794;7.054;2023-03-13T08:30:13;99321.28;;;14.14;83.49
72925;BME280;61070;50.794;7.054;2023-03-13T08:32:38;99318.34;;;14.20;82.39
72925;BME280;61070;50.794;7.054;2023-03-13T08:35:04;99321.16;;;14.17;82.78
72925;BME280;61070;50.794;7.054;2023-03-13T08:37:29;99315.22;;;14.29;81.81
72925;BME280;61070;50.794;7.054;2023-03-13T08:39:55;99311.53;;;14.32;81.69
72925;BME280;61070;50.794;7.054;2023-03-13T08:42:21;99326.00;;;14.45;81.31
72925;BME280;61070;50.794;7.054;2023-03-13T08:44:46;99312.63;;;14.27;82.35
72925;BME280;61070;50.794;7.054;2023-03-13T08:47:12;99319.09;;;14.41;82.03
72925;BME280;61070;50.794;7.054;2023-03-13T08:49:37;99320.84;;;14.23;84.68
72925;BME280;61070;50.794;7.054;2023-03-13T08:52:03;99314.50;;;14.25;84.71
72925;BME280;61070;50.794;7.054;2023-03-13T08:54:29;99320.28;;;14.16;85.02
72925;BME280;61070;50.794;7.054;2023-03-13T08:56:54;99314.19;;;14.32;84.59
72925;BME280;61070;50.794;7.054;2023-03-13T08:59:20;99307.75;;;14.18;85.05
72925;BME280;61070;50.794;7.054;2023-03-13T09:01:45;99310.75;;;14.30;84.19
72925;BME280;61070;50.794;7.054;2023-03-13T09:04:11;99307.00;;;14.34;84.55
72925;BME280;61070;50.794;7.054;2023-03-13T09:06:37;99308.88;;;14.32;85.34
72925;BME280;61070;50.794;7.054;2023-03-13T09:09:03;99309.56;;;14.35;85.33
72925;BME280;61070;50.794;7.054;2023-03-13T09:11:29;99313.09;;;14.36;85.89
72925;BME280;61070;50.794;7.054;2023-03-13T09:13:55;99317.81;;;14.31;86.42
72925;BME280;61070;50.794;7.054;2023-03-13T09:16:25;99309.25;;;14.24;87.02
72925;BME280;61070;50.794;7.054;2023-03-13T09:18:51;99307.59;;;14.21;87.61
72925;BME280;61070;50.794;7.054;2023-03-13T09:21:22;99308.19;;;14.28;87.21
72925;BME280;61070;50.794;7.054;2023-03-13T09:23:50;99310.97;;;14.25;87.34
72925;BME280;61070;50.794;7.054;2023-03-13T09:26:17;99313.09;;;14.36;87.27
72925;BME280;61070;50.794;7.054;2023-03-13T09:28:43;99301.75;;;14.32;88.33
72925;BME280;61070;50.794;7.054;2023-03-13T09:31:17;99309.84;;;14.48;87.70
72925;BME280;61070;50.794;7.054;2023-03-13T09:33:44;99306.13;;;14.52;87.22
72925;BME280;61070;50.794;7.054;2023-03-13T09:36:11;99301.66;;;14.52;88.29
72925;BME280;61070;50.794;7.054;2023-03-13T09:38:37;99291.19;;;14.48;88.66
72925;BME280;61070;50.794;7.054;2023-03-13T09:41:24;99284.81;;;14.52;87.69
72925;BME280;61070;50.794;7.054;2023-03-13T09:46:38;99284.38;;;14.42;88.83
72925;BME280;61070;50.794;7.054;2023-03-13T09:49:25;99287.47;;;14.33;89.17
72925;BME280;61070;50.794;7.054;2023-03-13T09:55:02;99285.69;;;14.34;89.20
72925;BME280;61070;50.794;7.054;2023-03-13T09:57:37;99273.78;;;14.41;89.15
72925;BME280;61070;50.794;7.054;2023-03-13T10:00:10;99280.44;;;14.32;89.91
72925;BME280;61070;50.794;7.054;2023-03-13T10:02:38;99280.53;;;14.48;88.95
72925;BME280;61070;50.794;7.054;2023-03-13T10:05:12;99280.91;;;14.40;89.44
72925;BME280;61070;50.794;7.054;2023-03-13T10:07:39;99267.16;;;14.67;88.52
72925;BME280;61070;50.794;7.054;2023-03-13T10:10:13;99262.00;;;14.64;89.53
72925;BME280;61070;50.794;7.054;2023-03-13T10:12:43;99256.75;;;14.62;89.99
72925;BME280;61070;50.794;7.054;2023-03-13T10:16:11;99252.88;;;14.85;88.49
72925;BME280;61070;50.794;7.054;2023-03-13T10:18:21;99260.00;;;14.84;88.67
72925;BME280;61070;50.794;7.054;2023-03-13T10:20:49;99255.44;;;14.87;88.53
72925;BME280;61070;50.794;7.054;2023-03-13T10:25:43;99251.47;;;15.11;88.42
72925;BME280;61070;50.794;7.054;2023-03-13T10:28:13;99242.22;;;15.18;87.53
72925;BME280;61070;50.794;7.054;2023-03-13T10:30:45;99254.25;;;15.25;87.06
72925;BME280;61070;50.794;7.054;2023-03-13T10:35:39;99242.06;;;15.04;87.84
72925;BME280;61070;50.794;7.054;2023-03-13T10:38:11;99252.44;;;15.10;87.36
72925;BME280;61070;50.794;7.054;2023-03-13T10:40:37;99245.47;;;15.07;86.57
72925;BME280;61070;50.794;7.054;2023-03-13T10:43:05;99238.88;;;14.97;87.22
72925;BME280;61070;50.794;7.054;2023-03-13T10:45:34;99232.91;;;15.09;86.54
72925;BME280;61070;50.794;7.054;2023-03-13T10:48:02;99216.81;;;15.11;86.50
72925;BME280;61070;50.794;7.054;2023-03-13T10:50:32;99222.91;;;15.13;86.25
72925;BME280;61070;50.794;7.054;2023-03-13T10:53:07;99218.88;;;15.37;85.11
72925;BME280;61070;50.794;7.054;2023-03-13T10:55:43;99216.94;;;15.41;84.89
72925;BME280;61070;50.794;7.054;2023-03-13T10:58:18;99215.19;;;15.40;84.83
72925;BME280;61070;50.794;7.054;2023-03-13T11:00:44;99212.72;;;15.53;83.45
72925;BME280;61070;50.794;7.054;2023-03-13T11:03:25;99216.34;;;15.52;83.86
72925;BME280;61070;50.794;7.054;2023-03-13T11:06:01;99202.50;;;15.77;82.53
72925;BME280;61070;50.794;7.054;2023-03-13T11:08:32;99193.69;;;15.90;81.59
72925;BME280;61070;50.794;7.054;2023-03-13T11:11:04;99188.16;;;15.93;81.80
72925;BME280;61070;50.794;7.054;2023-03-13T11:13:38;99187.94;;;16.12;81.02
72925;BME280;61070;50.794;7.054;2023-03-13T11:16:23;99163.72;;;16.15;80.08
72925;BME280;61070;50.794;7.054;2023-03-13T11:21:36;99164.66;;;16.44;79.41
72925;BME280;61070;50.794;7.054;2023-03-13T11:24:11;99155.03;;;16.56;77.81
72925;BME280;61070;50.794;7.054;2023-03-13T11:26:46;99138.31;;;16.67;77.83
72925;BME280;61070;50.794;7.054;2023-03-13T11:29:29;99139.31;;;16.80;77.39
72925;BME280;61070;50.794;7.054;2023-03-13T11:32:04;99146.75;;;16.89;77.43
72925;BME280;61070;50.794;7.054;2023-03-13T11:34:42;99129.00;;;16.88;76.61
72925;BME280;61070;50.794;7.054;2023-03-13T11:37:14;99126.88;;;16.79;77.65
72925;BME280;61070;50.794;7.054;2023-03-13T11:40:19;99120.66;;;16.93;77.19
72925;BME280;61070;50.794;7.054;2023-03-13T11:43:15;99098.75;;;17.14;75.46
72925;BME280;61070;50.794;7.054;2023-03-13T11:46:37;99087.44;;;17.24;74.78
72925;BME280;61070;50.794;7.054;2023-03-13T11:49:07;99095.16;;;17.28;74.18
72925;BME280;61070;50.794;7.054;2023-03-13T11:57:04;99073.50;;;17.18;72.78
72925;BME280;61070;50.794;7.054;2023-03-13T11:59:45;99073.38;;;17.34;72.81
72925;BME280;61070;50.794;7.054;2023-03-13T12:02:23;99062.84;;;17.31;71.49
72925;BME280;61070;50.794;7.054;2023-03-13T12:04:56;99062.44;;;17.37;70.79
72925;BME280;61070;50.794;7.054;2023-03-13T12:07:26;99065.69;;;17.15;69.81
72925;BME280;61070;50.794;7.054;2023-03-13T12:10:00;99055.34;;;17.24;70.25
72925;BME280;61070;50.794;7.054;2023-03-13T12:12:43;99062.63;;;17.07;70.30
72925;BME280;61070;50.794;7.054;2023-03-13T12:18:22;99057.84;;;17.12;71.57
72925;BME280;61070;50.794;7.054;2023-03-13T12:26:08;99042.59;;;17.27;71.74
72925;BME280;61070;50.794;7.054;2023-03-13T12:29:05;99044.59;;;17.11;71.09
72925;BME280;61070;50.794;7.054;2023-03-13T12:31:35;99048.81;;;17.01;71.24
72925;BME280;61070;50.794;7.054;2023-03-13T12:36:43;99047.22;;;16.84;72.21
72925;BME280;61070;50.794;7.054;2023-03-13T12:41:43;99031.91;;;16.86;70.93
72925;BME280;61070;50.794;7.054;2023-03-13T12:44:16;99030.31;;;16.83;71.02
72925;BME280;61070;50.794;7.054;2023-03-13T12:47:09;99032.59;;;16.90;70.35
72925;BME280;61070;50.794;7.054;2023-03-13T12:49:53;99024.84;;;16.85;71.56
72925;BME280;61070;50.794;7.054;2023-03-13T13:00:30;99010.78;;;16.96;70.99
72925;BME280;61070;50.794;7.054;2023-03-13T13:03:05;99006.72;;;16.76;71.82
72925;BME280;61070;50.794;7.054;2023-03-13T13:05:33;99004.56;;;16.68;72.67
72925;BME280;61070;50.794;7.054;2023-03-13T13:07:59;99004.91;;;16.62;73.34
72925;BME280;61070;50.794;7.054;2023-03-13T13:10:25;99011.22;;;16.47;73.34
72925;BME280;61070;50.794;7.054;2023-03-13T13:15:46;98988.53;;;16.25;75.21
72925;BME280;61070;50.794;7.054;2023-03-13T13:18:28;98978.69;;;16.26;74.97
72925;BME280;61070;50.794;7.054;2023-03-13T13:23:32;98992.25;;;16.09;76.69
72925;BME280;61070;50.794;7.054;2023-03-13T13:28:52;98960.09;;;16.24;76.66
72925;BME280;61070;50.794;7.054;2023-03-13T13:41:58;98935.63;;;16.86;74.88
72925;BME280;61070;50.794;7.054;2023-03-13T13:44:26;98918.53;;;16.88;74.98
72925;BME280;61070;50.794;7.054;2023-03-13T13:46:53;98929.84;;;16.79;75.73
72925;BME280;61070;50.794;7.054;2023-03-13T13:49:24;98931.22;;;16.58;76.12
72925;BME280;61070;50.794;7.054;2023-03-13T13:57:14;98914.22;;;16.59;76.09
72925;BME280;61070;50.794;7.054;2023-03-13T13:59:47;98921.97;;;16.49;77.30
72925;BME280;61070;50.794;7.054;2023-03-13T14:02:20;98908.38;;;16.52;76.99
72925;BME280;61070;50.794;7.054;2023-03-13T14:04:47;98895.84;;;16.67;76.53
72925;BME280;61070;50.794;7.054;2023-03-13T14:12:46;98887.66;;;16.70;76.88
72925;BME280;61070;50.794;7.054;2023-03-13T14:15:23;98863.19;;;16.62;76.29
72925;BME280;61070;50.794;7.054;2023-03-13T14:17:52;98867.91;;;16.58;76.11
72925;BME280;61070;50.794;7.054;2023-03-13T14:20:24;98872.56;;;16.69;76.06
72925;BME280;61070;50.794;7.054;2023-03-13T14:22:51;98862.22;;;16.77;76.36